Time;durP1;ratioP1;P1;durP2;ratioP2;P2;SDS_P1;SDS_P2;PMS_P1;PMS_P2;Temp;Humidity;BMP_temperature;BMP_pressure;BME280_temperature;BME280_humidity;BME280_pressure;Samples;Min_cycle;Max_cycle;Signal;HPM_P1;HPM_P2
2023/09/16 00:01:00;;;;;;;11.98;9.48;;;;;;;20.57;100.00;65146.84;5053363;28;20817;-51
2023/09/16 00:03:26;;;;;;;13.43;9.40;;;;;;;20.63;100.00;65153.47;5054653;28;20201;-54
2023/09/16 00:05:54;;;;;;;16.67;10.25;;;;;;;20.67;100.00;65157.34;5055209;28;20189;-57
2023/09/16 00:08:19;;;;;;;12.77;10.75;;;;;;;20.74;100.00;65162.53;5055329;28;20343;-54
2023/09/16 00:10:45;;;;;;;12.45;10.30;;;;;;;20.60;100.00;65149.63;5055543;28;20234;-52
2023/09/16 00:13:11;;;;;;;15.52;10.77;;;;;;;20.54;100.00;65143.00;5054647;28;20236;-53
2023/09/16 00:15:36;;;;;;;11.98;9.68;;;;;;;20.58;100.00;65147.41;5053831;28;20194;-57
2023/09/16 00:18:02;;;;;;;12.63;10.27;;;;;;;20.71;100.00;65162.31;5054730;28;20244;-51
2023/09/16 00:20:28;;;;;;;12.18;10.10;;;;;;;20.71;100.00;65162.31;5053978;28;20225;-56
2023/09/16 00:22:53;;;;;;;16.63;10.60;;;;;;;20.70;100.00;65160.69;5053722;28;20217;-55
2023/09/16 00:25:19;;;;;;;12.70;10.70;;;;;;;20.44;100.00;65131.94;5054482;28;20221;-51
2023/09/16 00:27:44;;;;;;;11.73;9.93;;;;;;;20.31;100.00;65120.69;5055286;28;20296;-55
2023/09/16 00:30:10;;;;;;;11.75;9.95;;;;;;;20.36;100.00;65125.66;5053314;28;20738;-55
2023/09/16 00:32:36;;;;;;;14.65;10.95;;;;;;;20.31;100.00;65118.13;5053461;28;20224;-51
2023/09/16 00:35:03;;;;;;;14.90;10.43;;;;;;;20.28;100.00;65114.25;5053345;28;20243;-50
2023/09/16 00:37:29;;;;;;;13.18;9.90;;;;;;;20.30;100.00;65116.47;5035691;28;20213;-50
2023/09/16 00:39:54;;;;;;;15.35;11.35;;;;;;;20.22;100.00;65105.06;5053107;28;20697;-51
2023/09/16 00:42:20;;;;;;;18.42;13.95;;;;;;;20.26;100.00;65112.59;5053390;28;20210;-53
2023/09/16 00:44:46;;;;;;;21.27;16.42;;;;;;;20.24;100.00;65110.38;5053529;28;20293;-54
2023/09/16 00:47:12;;;;;;;15.82;13.43;;;;;;;20.19;100.00;65104.28;5053717;28;20213;-54
2023/09/16 00:49:38;;;;;;;13.98;11.95;;;;;;;20.13;100.00;65098.22;5053351;28;20255;-52
2023/09/16 00:52:04;;;;;;;12.15;9.60;;;;;;;20.09;100.00;65094.34;5053234;28;20209;-52
2023/09/16 00:54:30;;;;;;;14.70;10.48;;;;;;;20.10;100.00;65095.44;5035860;28;20205;-55
2023/09/16 00:56:58;;;;;;;12.80;9.93;;;;;;;20.03;100.00;65087.72;5052397;28;20675;-52
2023/09/16 00:59:26;;;;;;;16.63;10.48;;;;;;;20.16;100.00;65100.97;5054384;28;20198;-52
2023/09/16 01:01:53;;;;;;;13.18;10.25;;;;;;;20.20;100.00;65105.41;5053223;28;20675;-52
2023/09/16 01:04:21;;;;;;;13.13;10.20;;;;;;;20.29;100.00;65115.91;5052559;28;20286;-52
2023/09/16 01:06:50;;;;;;;13.07;10.27;;;;;;;20.23;100.00;65111.84;5053382;28;20216;-53
2023/09/16 01:09:19;;;;;;;14.05;10.30;;;;;;;20.41;100.00;65128.63;5053206;28;20247;-50
2023/09/16 01:11:44;;;;;;;13.02;10.65;;;;;;;20.24;100.00;65109.84;5052971;28;20277;-55
2023/09/16 01:14:13;;;;;;;13.68;10.52;;;;;;;20.17;100.00;65099.50;5053062;28;20209;-54
2023/09/16 01:16:46;;;;;;;14.68;11.10;;;;;;;20.11;100.00;65093.44;5052464;28;20202;-54
2023/09/16 01:19:25;;;;;;;12.38;10.40;;;;;;;20.22;100.00;65110.19;5052818;28;20338;-53
2023/09/16 01:21:52;;;;;;;13.60;11.10;;;;;;;20.11;100.00;65096.00;5053419;28;20213;-54
2023/09/16 01:24:20;;;;;;;15.48;9.88;;;;;;;20.13;100.00;65097.66;5053659;28;20631;-52
2023/09/16 01:26:46;;;;;;;11.48;10.25;;;;;;;20.15;100.00;65099.88;5053509;28;20209;-52
2023/09/16 01:29:13;;;;;;;12.90;10.52;;;;;;;20.13;100.00;65095.66;5052548;28;20210;-52
2023/09/16 01:31:40;;;;;;;13.60;10.65;;;;;;;19.85;100.00;65067.28;5052657;28;20315;-54
2023/09/16 01:34:29;;;;;;;20.05;16.48;;;;;;;19.95;100.00;65078.34;5034701;28;20223;-51
2023/09/16 01:36:58;;;;;;;13.23;10.05;;;;;;;20.18;100.00;65103.19;5053865;28;20647;-57
2023/09/16 01:39:26;;;;;;;14.35;10.45;;;;;;;20.14;100.00;65101.34;5052856;28;20240;-57
2023/09/16 01:41:52;;;;;;;14.55;11.50;;;;;;;20.06;100.00;65087.91;5052376;28;20215;-53
2023/09/16 01:44:17;;;;;;;16.33;10.82;;;;;;;19.97;100.00;65083.66;5035167;28;20259;-54
2023/09/16 01:46:43;;;;;;;16.23;10.18;;;;;;;19.85;100.00;65067.28;5051907;28;20201;-56
2023/09/16 01:49:09;;;;;;;20.42;11.52;;;;;;;19.80;100.00;65061.75;5052939;28;20182;-52
2023/09/16 01:51:35;;;;;;;13.50;10.70;;;;;;;19.79;100.00;65063.78;5051845;28;20217;-52
2023/09/16 01:54:00;;;;;;;17.02;10.20;;;;;;;20.00;100.00;65081.84;5053220;28;20197;-53
2023/09/16 01:56:26;;;;;;;11.10;10.02;;;;;;;19.95;100.00;65081.44;5052767;28;20707;-55
2023/09/16 01:58:51;;;;;;;12.50;10.75;;;;;;;19.54;100.00;65033.59;5052403;28;20217;-50
2023/09/16 02:01:17;;;;;;;12.93;10.13;;;;;;;19.50;100.00;65028.63;5034289;28;20216;-52
2023/09/16 02:03:43;;;;;;;12.27;9.95;;;;;;;19.68;100.00;65045.94;5052558;28;20240;-54
2023/09/16 02:06:09;;;;;;;13.25;9.55;;;;;;;19.83;100.00;65065.06;5052084;28;20185;-52
2023/09/16 02:08:41;;;;;;;10.55;9.45;;;;;;;19.86;100.00;65068.94;5052687;28;20205;-52
2023/09/16 02:11:07;;;;;;;15.23;10.77;;;;;;;19.97;100.00;65075.97;5052993;28;20205;-52
2023/09/16 02:13:35;;;;;;;11.98;10.23;;;;;;;19.98;100.00;65084.75;5052220;28;20280;-53
2023/09/16 02:16:00;;;;;;;12.45;10.32;;;;;;;20.01;100.00;65085.50;5052621;28;20247;-51
2023/09/16 02:18:26;;;;;;;11.68;10.38;;;;;;;19.93;100.00;65076.69;5053110;28;20714;-51
2023/09/16 02:20:51;;;;;;;13.85;9.63;;;;;;;19.94;100.00;65077.78;5053056;28;20209;-52
2023/09/16 02:23:17;;;;;;;16.17;12.52;;;;;;;19.92;100.00;65075.00;5052844;28;20708;-55
2023/09/16 02:25:42;;;;;;;12.88;11.32;;;;;;;19.97;100.00;65078.53;5052227;28;20683;-52
2023/09/16 02:28:07;;;;;;;18.20;13.50;;;;;;;20.01;100.00;65082.97;5051164;28;20218;-53
2023/09/16 02:30:33;;;;;;;23.38;17.98;;;;;;;20.04;100.00;65086.25;5052585;28;20201;-51
2023/09/16 02:32:58;;;;;;;16.42;14.35;;;;;;;20.07;100.00;65094.69;5052100;28;20592;-53
2023/09/16 02:35:24;;;;;;;17.55;11.90;;;;;;;20.14;100.00;65098.78;5051883;28;20213;-52
2023/09/16 02:37:49;;;;;;;15.00;10.63;;;;;;;20.21;100.00;65109.63;5051988;28;20665;-55
2023/09/16 02:40:16;;;;;;;13.40;11.40;;;;;;;20.29;100.00;65115.91;5052222;28;20236;-52
2023/09/16 02:42:41;;;;;;;14.38;10.93;;;;;;;20.20;100.00;65107.97;5033049;28;20215;-52
2023/09/16 02:45:08;;;;;;;16.13;10.82;;;;;;;20.05;100.00;65089.94;5051354;28;20213;-55
2023/09/16 02:47:33;;;;;;;19.02;11.07;;;;;;;20.16;100.00;65098.97;5051851;28;20205;-50
2023/09/16 02:50:00;;;;;;;12.90;11.13;;;;;;;20.21;100.00;65104.50;5051667;28;20259;-51
2023/09/16 02:52:25;;;;;;;16.30;13.85;;;;;;;20.05;100.00;65087.38;5033697;28;20217;-52
2023/09/16 02:54:51;;;;;;;14.15;11.80;;;;;;;20.27;100.00;65110.59;5052704;28;20347;-52
2023/09/16 02:57:16;;;;;;;15.23;11.93;;;;;;;20.13;100.00;65097.66;5051244;28;20673;-53
2023/09/16 02:59:42;;;;;;;12.90;11.57;;;;;;;20.01;100.00;65085.50;5051774;28;20197;-55
2023/09/16 03:02:08;;;;;;;16.05;13.80;;;;;;;19.83;100.00;65065.06;5051007;28;20239;-54
2023/09/16 03:04:33;;;;;;;15.02;11.70;;;;;;;19.74;100.00;65055.13;5050298;28;20198;-50
2023/09/16 03:06:59;;;;;;;15.90;12.70;;;;;;;19.97;100.00;65077.97;5050807;28;20274;-51
2023/09/16 03:09:24;;;;;;;15.48;12.13;;;;;;;19.94;100.00;65079.78;5051137;28;20193;-52
2023/09/16 03:11:50;;;;;;;15.32;11.60;;;;;;;19.79;100.00;65060.66;5051966;28;20209;-51
2023/09/16 03:14:16;;;;;;;17.48;12.27;;;;;;;19.73;100.00;65054.03;5050939;28;20195;-54
2023/09/16 03:16:42;;;;;;;14.15;11.15;;;;;;;19.69;100.00;65050.19;5051376;28;20248;-52
2023/09/16 03:19:08;;;;;;;17.92;12.27;;;;;;;19.64;100.00;65047.19;5050748;28;20295;-52
2023/09/16 03:21:34;;;;;;;17.98;12.32;;;;;;;19.95;100.00;65078.34;5051210;28;20270;-52
2023/09/16 03:24:00;;;;;;;14.23;11.55;;;;;;;19.73;100.00;65057.16;5051412;28;20311;-53
2023/09/16 03:26:26;;;;;;;18.65;11.88;;;;;;;19.77;100.00;65056.44;5053187;28;20206;-55
2023/09/16 03:28:57;;;;;;;16.05;12.13;;;;;;;19.84;100.00;65066.72;5033641;28;20192;-51
2023/09/16 03:31:22;;;;;;;14.40;12.15;;;;;;;19.75;100.00;65056.81;5051386;28;20205;-51
2023/09/16 03:33:48;;;;;;;16.08;11.82;;;;;;;19.51;100.00;65030.31;5050576;28;20201;-55
2023/09/16 03:36:13;;;;;;;18.25;13.38;;;;;;;19.52;100.00;65031.38;5050323;28;20270;-52
2023/09/16 03:38:47;;;;;;;17.55;12.02;;;;;;;19.53;100.00;65032.50;5034161;28;20205;-54
2023/09/16 03:41:13;;;;;;;15.52;12.68;;;;;;;19.61;100.00;65038.22;5050857;28;20217;-51
2023/09/16 03:43:39;;;;;;;17.08;12.40;;;;;;;19.66;100.00;65044.28;5051178;28;20239;-55
2023/09/16 03:46:05;;;;;;;16.48;13.05;;;;;;;19.82;100.00;65064.53;5050616;28;20690;-52
2023/09/16 03:48:30;;;;;;;15.60;12.25;;;;;;;20.00;100.00;65084.41;5051625;28;20342;-59
2023/09/16 03:50:56;;;;;;;17.58;12.27;;;;;;;20.05;100.00;65091.94;5052163;28;20237;-53
2023/09/16 03:53:25;;;;;;;17.58;11.98;;;;;;;19.77;100.00;65059.00;5051511;28;20292;-53
2023/09/16 03:55:53;;;;;;;12.80;11.50;;;;;;;19.82;100.00;65064.53;5050870;28;20697;-53
2023/09/16 03:58:19;;;;;;;14.93;12.60;;;;;;;19.44;100.00;65022.00;5050259;28;20267;-54
2023/09/16 04:00:44;;;;;;;16.00;11.65;;;;;;;19.41;100.00;65021.81;5033974;28;20221;-54
2023/09/16 04:03:11;;;;;;;16.88;12.57;;;;;;;19.47;100.00;65025.88;5050079;28;20259;-52
2023/09/16 04:05:37;;;;;;;14.40;12.57;;;;;;;19.48;100.00;65026.97;5049827;28;20705;-53
2023/09/16 04:08:02;;;;;;;15.65;12.38;;;;;;;19.52;100.00;65028.84;5049947;28;20217;-53
2023/09/16 04:10:28;;;;;;;17.80;12.68;;;;;;;19.63;100.00;65043.56;5049517;28;20205;-54
2023/09/16 04:12:54;;;;;;;18.83;12.57;;;;;;;19.59;100.00;65038.56;5032033;28;20213;-54
2023/09/16 04:15:20;;;;;;;17.08;12.35;;;;;;;19.42;100.00;65019.78;5049644;28;20595;-56
2023/09/16 04:17:45;;;;;;;14.85;12.70;;;;;;;19.13;100.00;64985.75;5049839;28;20239;-54
2023/09/16 04:20:11;;;;;;;18.77;13.13;;;;;;;18.98;100.00;64974.88;5049195;28;20280;-54
2023/09/16 04:22:37;;;;;;;16.33;12.68;;;;;;;19.17;100.00;64992.72;5048474;28;20210;-53
2023/09/16 04:25:03;;;;;;;18.20;12.90;;;;;;;19.10;100.00;64987.56;5049592;28;20267;-54
2023/09/16 04:27:28;;;;;;;19.50;13.23;;;;;;;19.04;100.00;64978.38;5049602;28;20218;-53
2023/09/16 04:29:54;;;;;;;18.88;15.20;;;;;;;18.83;100.00;64955.75;5049530;28;20263;-55
2023/09/16 04:32:20;;;;;;;26.02;15.55;;;;;;;18.99;100.00;64972.84;5049892;28;20205;-54
2023/09/16 04:34:45;;;;;;;21.05;15.15;;;;;;;19.01;100.00;64975.06;5053147;28;20197;-54
2023/09/16 04:37:10;;;;;;;20.55;15.50;;;;;;;19.10;100.00;64985.56;5051813;28;20678;-55
2023/09/16 04:39:36;;;;;;;23.60;15.93;;;;;;;19.27;100.00;65001.75;5052927;28;20193;-60
2023/09/16 04:42:02;;;;;;;20.25;16.30;;;;;;;19.30;100.00;65007.09;5051663;28;20590;-55
2023/09/16 04:44:29;;;;;;;19.75;16.02;;;;;;;19.13;100.00;64986.31;5052693;28;20651;-55
2023/09/16 04:46:54;;;;;;;22.88;15.18;;;;;;;18.95;100.00;64971.56;5052665;28;20205;-53
2023/09/16 04:49:21;;;;;;;19.40;16.15;;;;;;;19.12;100.00;64985.22;5052950;28;20212;-54
2023/09/16 04:51:46;;;;;;;21.45;15.50;;;;;;;19.00;100.00;64973.97;5052695;28;20217;-54
2023/09/16 04:54:11;;;;;;;21.00;15.10;;;;;;;19.03;100.00;64977.81;5052704;28;20672;-54
2023/09/16 04:56:37;;;;;;;18.23;16.27;;;;;;;19.01;100.00;64975.06;5052499;28;20240;-54
2023/09/16 04:59:04;;;;;;;21.58;16.55;;;;;;;18.96;100.00;64967.56;5052641;28;20228;-54
2023/09/16 05:01:30;;;;;;;21.90;16.73;;;;;;;19.11;100.00;64989.22;5052295;28;20213;-55
2023/09/16 05:03:56;;;;;;;20.42;15.80;;;;;;;19.21;100.00;64995.13;5052573;28;20268;-55
2023/09/16 05:06:21;;;;;;;21.30;17.27;;;;;;;19.31;100.00;65008.19;5052380;28;20213;-54
2023/09/16 05:08:47;;;;;;;21.67;16.90;;;;;;;19.28;100.00;65008.00;5052512;28;20201;-55
2023/09/16 05:11:13;;;;;;;19.45;16.80;;;;;;;19.27;100.00;65001.22;5052320;28;20261;-55
2023/09/16 05:13:39;;;;;;;21.70;16.33;;;;;;;19.09;100.00;64981.34;5052402;28;20344;-55
2023/09/16 05:16:05;;;;;;;21.70;17.13;;;;;;;18.82;100.00;64957.22;5052187;28;20671;-55
2023/09/16 05:18:30;;;;;;;20.25;16.90;;;;;;;18.85;100.00;64957.97;5052694;28;20182;-55
2023/09/16 05:20:56;;;;;;;22.52;17.70;;;;;;;18.93;100.00;64968.78;5052295;28;20245;-52
2023/09/16 05:23:25;;;;;;;21.55;15.55;;;;;;;19.14;100.00;64991.97;5052481;28;20205;-53
2023/09/16 05:25:51;;;;;;;18.75;14.73;;;;;;;19.35;100.00;65012.63;5052376;28;20248;-52
2023/09/16 05:28:17;;;;;;;18.85;16.13;;;;;;;19.17;100.00;64993.28;5052236;28;20636;-52
2023/09/16 05:30:43;;;;;;;19.92;15.70;;;;;;;19.08;100.00;64985.34;5052288;28;20209;-52
2023/09/16 05:33:11;;;;;;;21.02;15.23;;;;;;;18.78;100.00;64950.25;5052039;28;20244;-52
2023/09/16 05:35:41;;;;;;;19.95;15.75;;;;;;;18.54;100.00;64923.78;5052071;28;20292;-55
2023/09/16 05:38:07;;;;;;;19.58;15.20;;;;;;;18.53;100.00;64922.66;5034172;28;20635;-52
2023/09/16 05:40:36;;;;;;;22.52;16.60;;;;;;;18.58;100.00;64925.09;5034096;28;20209;-52
2023/09/16 05:43:01;;;;;;;17.63;15.63;;;;;;;18.70;100.00;64941.44;5033308;28;20236;-52
2023/09/16 05:45:27;;;;;;;20.23;15.05;;;;;;;19.36;100.00;65013.16;5052203;28;20181;-53
2023/09/16 05:47:52;;;;;;;19.95;15.13;;;;;;;19.21;100.00;64997.13;5050730;28;20593;-54
2023/09/16 05:50:17;;;;;;;17.77;15.85;;;;;;;19.15;100.00;64993.63;5052179;28;20189;-53
2023/09/16 05:52:43;;;;;;;21.35;16.73;;;;;;;19.23;100.00;65002.47;5052158;28;20597;-53
2023/09/16 05:55:09;;;;;;;18.58;15.35;;;;;;;18.85;100.00;64960.53;5052187;28;20208;-52
2023/09/16 05:57:35;;;;;;;23.02;14.40;;;;;;;18.93;100.00;64966.25;5051627;28;20220;-55
2023/09/16 06:00:01;;;;;;;18.65;15.60;;;;;;;19.10;100.00;64987.56;5051651;28;20189;-53
2023/09/16 06:02:27;;;;;;;18.42;15.40;;;;;;;19.25;100.00;65002.09;5051820;28;20241;-55
2023/09/16 06:04:52;;;;;;;24.40;16.77;;;;;;;19.11;100.00;64983.53;5051740;28;20696;-53
2023/09/16 06:07:18;;;;;;;23.10;17.85;;;;;;;18.98;100.00;64972.31;5033869;28;20718;-53
2023/09/16 06:09:44;;;;;;;23.42;17.75;;;;;;;19.09;100.00;64983.91;5051590;28;20616;-53
2023/09/16 06:12:09;;;;;;;20.15;17.08;;;;;;;18.95;100.00;64966.44;5050062;28;20660;-53
2023/09/16 06:14:35;;;;;;;21.50;17.33;;;;;;;18.89;100.00;64959.28;5051266;28;20696;-55
2023/09/16 06:17:00;;;;;;;21.52;18.30;;;;;;;18.78;100.00;64950.25;5050609;28;20214;-52
2023/09/16 06:19:28;;;;;;;22.45;17.65;;;;;;;18.55;100.00;64921.75;5033382;28;20237;-53
2023/09/16 06:21:55;;;;;;;24.85;18.35;;;;;;;18.56;100.00;64925.44;5051523;28;20275;-55
2023/09/16 06:24:22;;;;;;;22.00;17.98;;;;;;;18.90;100.00;64965.50;5051414;28;20193;-55
2023/09/16 06:26:48;;;;;;;22.35;18.02;;;;;;;18.95;100.00;64963.88;5050570;28;20251;-52
2023/09/16 06:29:13;;;;;;;25.08;18.23;;;;;;;18.90;100.00;64966.06;5049141;28;20206;-53
2023/09/16 06:31:39;;;;;;;25.85;17.35;;;;;;;18.98;100.00;64971.75;5050092;28;20209;-52
2023/09/16 06:34:07;;;;;;;31.83;19.52;;;;;;;19.39;100.00;65017.06;5051233;28;20197;-60
2023/09/16 06:36:33;;;;;;;22.70;19.55;;;;;;;19.17;100.00;64995.28;5051191;28;20205;-56
2023/09/16 06:38:59;;;;;;;23.27;18.75;;;;;;;18.97;100.00;64970.66;5051198;28;20193;-54
2023/09/16 06:41:26;;;;;;;23.00;19.70;;;;;;;18.89;100.00;64959.28;5050778;28;20218;-54
2023/09/16 06:43:51;;;;;;;20.13;16.27;;;;;;;19.89;100.00;65071.69;5050930;28;20279;-57
2023/09/16 06:46:18;;;;;;;20.30;17.25;;;;;;;20.24;100.00;65112.94;5051238;28;20279;-57
2023/09/16 06:48:45;;;;;;;18.73;15.15;;;;;;;20.55;100.00;65144.63;5051294;28;20213;-57
2023/09/16 06:51:10;;;;;;;19.23;15.02;;;;;;;20.72;100.00;65166.00;5050920;28;20209;-57
2023/09/16 06:53:36;;;;;;;22.98;16.08;;;;;;;20.63;100.00;65152.94;5051597;28;20583;-56
2023/09/16 06:56:02;;;;;;;18.77;16.55;;;;;;;20.49;100.00;65135.44;5050307;28;20591;-56
2023/09/16 06:58:28;;;;;;;19.65;15.75;;;;;;;20.19;100.00;65104.28;5051250;28;20688;-55
2023/09/16 07:00:54;;;;;;;21.88;17.65;;;;;;;20.12;100.00;65097.09;5051053;28;20224;-57
2023/09/16 07:03:21;;;;;;;21.00;16.85;;;;;;;19.99;100.00;65082.75;5050860;28;20201;-58
2023/09/16 07:05:47;;;;;;;26.70;21.75;;;;;;;19.69;100.00;65050.19;5050887;28;20284;-55
2023/09/16 07:08:14;;;;;;;20.95;17.85;;;;;;;19.52;100.00;65031.38;5050994;28;20213;-55
2023/09/16 07:10:40;;;;;;;18.73;16.08;;;;;;;19.30;100.00;65004.53;5050820;28;20228;-56
2023/09/16 07:13:05;;;;;;;19.80;17.15;;;;;;;19.37;100.00;65017.41;5032705;28;20217;-55
2023/09/16 07:15:30;;;;;;;21.08;16.33;;;;;;;19.42;100.00;65017.25;5032837;28;20161;-56
2023/09/16 07:17:56;;;;;;;20.17;17.52;;;;;;;19.45;100.00;65023.13;5050746;28;20255;-56
2023/09/16 07:20:22;;;;;;;22.92;17.33;;;;;;;19.79;100.00;65061.22;5050836;28;20308;-55
2023/09/16 07:22:49;;;;;;;22.13;18.02;;;;;;;19.61;100.00;65041.34;5050741;28;20368;-57
2023/09/16 07:25:15;;;;;;;19.20;16.85;;;;;;;19.36;100.00;65011.16;5050925;28;20205;-56
2023/09/16 07:27:41;;;;;;;22.23;17.85;;;;;;;19.33;100.00;65007.88;5032403;28;20221;-56
2023/09/16 07:30:07;;;;;;;26.83;19.40;;;;;;;19.44;100.00;65019.44;5050739;28;20258;-56
2023/09/16 07:32:33;;;;;;;22.27;18.98;;;;;;;19.60;100.00;65040.22;5050753;28;20252;-56
2023/09/16 07:34:59;;;;;;;23.13;20.05;;;;;;;19.57;100.00;65036.38;5032582;28;20201;-56
2023/09/16 07:37:24;;;;;;;22.95;18.00;;;;;;;19.55;100.00;65034.16;5050284;28;20236;-56
2023/09/16 07:39:51;;;;;;;21.58;17.70;;;;;;;19.82;100.00;65063.97;5050522;28;20194;-60
2023/09/16 07:42:16;;;;;;;22.90;19.55;;;;;;;19.80;100.00;65062.31;5032613;28;20746;-57
2023/09/16 07:44:42;;;;;;;25.92;19.00;;;;;;;19.83;100.00;65068.19;5050392;28;20181;-56
2023/09/16 07:47:07;;;;;;;25.15;19.00;;;;;;;19.83;100.00;65065.63;5050200;28;20206;-56
2023/09/16 07:49:32;;;;;;;26.33;21.40;;;;;;;19.65;100.00;65043.19;5050602;28;20189;-55
2023/09/16 07:51:58;;;;;;;28.20;21.75;;;;;;;19.53;100.00;65034.50;5050360;28;20328;-57
2023/09/16 07:54:24;;;;;;;26.52;21.40;;;;;;;19.42;100.00;65017.78;5032404;28;20289;-57
2023/09/16 07:56:49;;;;;;;28.15;21.70;;;;;;;19.45;100.00;65023.69;5032325;28;20213;-55
2023/09/16 07:59:20;;;;;;;23.75;21.15;;;;;;;19.45;100.00;65023.13;5050435;28;20677;-56
2023/09/16 08:01:46;;;;;;;25.50;21.55;;;;;;;19.50;100.00;65029.19;5050178;28;20291;-55
2023/09/16 08:04:11;;;;;;;25.60;22.65;;;;;;;19.47;100.00;65028.44;5032337;28;20255;-56
2023/09/16 08:06:36;;;;;;;24.75;21.80;;;;;;;19.43;100.00;65024.03;5051993;28;20263;-55
2023/09/16 08:09:02;;;;;;;27.55;23.08;;;;;;;19.25;100.00;65001.56;5053669;28;20712;-55
2023/09/16 08:11:28;;;;;;;26.35;22.17;;;;;;;19.41;100.00;65019.25;5053518;28;20209;-55
2023/09/16 08:13:54;;;;;;;41.72;32.85;;;;;;;19.25;100.00;65001.56;5053319;28;20255;-56
2023/09/16 08:16:19;;;;;;;26.27;22.90;;;;;;;19.74;100.00;65055.69;5053835;28;20572;-57
2023/09/16 08:18:45;;;;;;;34.35;22.95;;;;;;;19.82;100.00;65061.97;5053703;28;20254;-55
2023/09/16 08:21:11;;;;;;;25.35;22.65;;;;;;;20.10;100.00;65092.88;5053481;28;20239;-55
2023/09/16 08:23:37;;;;;;;26.60;22.30;;;;;;;19.97;100.00;65080.53;5053719;28;20676;-55
2023/09/16 08:26:02;;;;;;;32.75;27.80;;;;;;;19.94;100.00;65075.22;5035505;28;20562;-56
2023/09/16 08:28:28;;;;;;;40.08;30.55;;;;;;;19.94;100.00;65074.66;5053350;28;20206;-54
2023/09/16 08:30:54;;;;;;;25.67;22.90;;;;;;;20.02;100.00;65083.50;5053308;28;20609;-55
2023/09/16 08:33:19;;;;;;;25.67;21.17;;;;;;;20.20;100.00;65105.97;5053594;28;20794;-56
2023/09/16 08:35:44;;;;;;;24.60;21.95;;;;;;;20.37;100.00;65124.75;5053308;28;20197;-55
2023/09/16 08:38:10;;;;;;;28.02;23.10;;;;;;;20.26;100.00;65112.59;5053072;28;20217;-56
2023/09/16 08:40:36;;;;;;;25.58;21.35;;;;;;;20.10;100.00;65089.78;5053207;28;20233;-58
2023/09/16 08:43:13;;;;;;;25.88;21.65;;;;;;;20.05;100.00;65089.38;5053883;28;20260;-55
2023/09/16 08:45:43;;;;;;;23.88;19.95;;;;;;;19.99;100.00;65083.31;5053215;28;20201;-56
2023/09/16 08:48:15;;;;;;;22.05;18.98;;;;;;;20.00;100.00;65081.28;5052814;28;20719;-55
2023/09/16 08:50:43;;;;;;;23.38;18.70;;;;;;;20.21;100.00;65104.50;5034819;28;20206;-54
2023/09/16 08:53:12;;;;;;;23.98;18.80;;;;;;;20.06;100.00;65088.47;5052893;28;20218;-56
2023/09/16 08:55:38;;;;;;;21.98;18.45;;;;;;;19.75;100.00;65056.25;5052994;28;20209;-56
2023/09/16 08:58:06;;;;;;;20.52;16.77;;;;;;;19.90;100.00;65070.78;5034882;28;20228;-54
2023/09/16 09:00:32;;;;;;;21.80;16.65;;;;;;;20.22;100.00;65105.59;5052794;28;20345;-56
2023/09/16 09:02:57;;;;;;;19.98;16.73;;;;;;;20.13;100.00;65098.22;5053285;28;20226;-56
2023/09/16 09:05:26;;;;;;;21.77;17.92;;;;;;;20.18;100.00;65101.16;5034909;28;20312;-55
2023/09/16 09:07:52;;;;;;;19.73;17.42;;;;;;;20.48;100.00;65136.91;5052955;28;20213;-59
2023/09/16 09:10:18;;;;;;;22.10;18.42;;;;;;;20.53;100.00;65139.31;5053022;28;20182;-56
2023/09/16 09:12:44;;;;;;;30.05;25.23;;;;;;;20.71;100.00;65159.75;5053133;28;20209;-55
2023/09/16 09:15:14;;;;;;;20.90;18.67;;;;;;;21.28;100.00;65222.25;5034806;28;20296;-55
2023/09/16 09:17:44;;;;;;;26.75;22.02;;;;;;;21.77;100.00;65278.47;5051900;28;20367;-54
2023/09/16 09:20:22;;;;;;;25.25;20.45;;;;;;;22.02;100.00;65303.03;5052633;28;20232;-54
2023/09/16 09:22:50;;;;;;;18.60;16.70;;;;;;;22.59;100.00;65363.00;5053030;28;20255;-56
2023/09/16 09:25:20;;;;;;;31.20;26.27;;;;;;;22.28;100.00;65331.81;5034831;28;20205;-54
2023/09/16 09:27:47;;;;;;;22.20;17.90;;;;;;;21.49;100.00;65245.47;5034678;28;20225;-54
2023/09/16 09:30:14;;;;;;;22.45;20.13;;;;;;;21.31;100.00;65225.56;5052694;28;20678;-54
2023/09/16 09:32:46;;;;;;;36.60;31.05;;;;;;;21.25;100.00;65218.38;5052316;28;20688;-54
2023/09/16 09:35:11;;;;;;;16.17;13.80;;;;;;;21.57;100.00;65253.78;5052540;28;20216;-55
2023/09/16 09:37:38;;;;;;;20.58;15.88;;;;;;;21.70;100.00;65271.28;5034292;28;20700;-55
2023/09/16 09:40:12;;;;;;;20.75;13.93;;;;;;;21.63;100.00;65262.97;5034657;28;20211;-54
2023/09/16 09:42:42;;;;;;;12.43;11.20;;;;;;;22.39;100.00;65344.53;5034393;28;20224;-55
2023/09/16 09:45:09;;;;;;;12.63;11.30;;;;;;;22.73;100.00;65381.09;5034338;28;20289;-54
2023/09/16 09:47:40;;;;;;;13.27;10.05;;;;;;;22.56;100.00;65365.38;5051937;28;20241;-54
2023/09/16 09:50:11;;;;;;;14.15;11.55;;;;;;;22.31;100.00;65338.25;5052208;28;20193;-54
2023/09/16 09:52:36;;;;;;;14.27;12.73;;;;;;;22.33;100.00;65339.91;5051994;28;20703;-55
2023/09/16 09:55:03;;;;;;;15.20;12.43;;;;;;;22.33;100.00;65337.91;5051882;28;20259;-54
2023/09/16 09:57:29;;;;;;;15.13;13.55;;;;;;;22.31;100.00;65340.25;5051898;28;20217;-54
2023/09/16 09:59:56;;;;;;;14.27;11.65;;;;;;;22.34;100.00;65338.44;5051986;28;20212;-54
2023/09/16 10:02:26;;;;;;;15.27;12.65;;;;;;;22.33;100.00;65337.91;5051823;28;20214;-53
2023/09/16 10:05:02;;;;;;;13.07;10.80;;;;;;;22.36;100.00;65340.66;5033626;28;20202;-57
2023/09/16 10:07:31;;;;;;;13.70;11.35;;;;;;;22.96;100.00;65404.56;5051828;28;20205;-53
2023/09/16 10:09:58;;;;;;;12.50;10.70;;;;;;;23.49;100.00;65465.31;5051707;28;20286;-53
2023/09/16 10:12:24;;;;;;;12.98;11.55;;;;;;;23.57;100.00;65473.63;5051701;28;20241;-53
2023/09/16 10:14:51;;;;;;;13.75;10.10;;;;;;;24.43;100.00;65566.41;5051439;28;20225;-53
2023/09/16 10:17:18;;;;;;;9.75;8.82;;;;;;;24.73;95.62;65602.25;5033454;28;20220;-53
2023/09/16 10:19:44;;;;;;;10.82;8.43;;;;;;;24.15;95.34;65535.91;5051357;28;20237;-54
2023/09/16 10:22:11;;;;;;;9.00;7.30;;;;;;;24.66;91.71;65594.50;5051332;28;20222;-53
2023/09/16 10:24:50;;;;;;;10.57;8.00;;;;;;;25.10;93.91;65640.19;5051380;28;20243;-52
2023/09/16 10:27:21;;;;;;;9.13;8.23;;;;;;;25.24;85.22;65655.16;5051278;28;20221;-53
2023/09/16 10:29:48;;;;;;;8.23;7.35;;;;;;;25.55;88.37;65692.72;5050169;28;20231;-53
2023/09/16 10:32:16;;;;;;;9.68;6.95;;;;;;;25.67;77.98;65705.50;5051228;28;20213;-53
2023/09/16 10:34:44;;;;;;;11.45;7.38;;;;;;;25.85;79.09;65720.31;5051336;28;20197;-52
2023/09/16 10:37:09;;;;;;;7.05;6.38;;;;;;;25.48;76.27;65684.41;5051221;28;20304;-56
2023/09/16 10:39:38;;;;;;;7.95;6.60;;;;;;;25.43;75.85;65678.84;5051233;28;20279;-53
2023/09/16 10:42:05;;;;;;;7.97;7.18;;;;;;;25.22;74.03;65655.53;5050921;28;20289;-52
2023/09/16 10:44:32;;;;;;;12.15;8.43;;;;;;;24.57;81.19;65584.50;5051106;28;20197;-52
2023/09/16 10:46:58;;;;;;;7.40;6.43;;;;;;;24.63;78.05;65591.16;5049535;28;20320;-52
2023/09/16 10:49:24;;;;;;;8.38;7.57;;;;;;;25.41;81.68;65674.59;5051129;28;20265;-52
2023/09/16 10:51:51;;;;;;;8.75;7.90;;;;;;;26.24;80.24;65768.81;5050782;28;20296;-52
2023/09/16 10:54:48;;;;;;;8.75;7.72;;;;;;;26.34;77.81;65777.34;5050883;28;20735;-52
2023/09/16 10:57:24;;;;;;;9.45;7.60;;;;;;;26.10;77.78;65752.72;5018512;28;20299;-52
2023/09/16 10:59:52;;;;;;;9.18;7.70;;;;;;;25.67;80.08;65706.03;5051060;28;20185;-52
2023/09/16 11:02:20;;;;;;;7.55;5.75;;;;;;;25.33;72.86;65667.75;5050533;28;20264;-52
2023/09/16 11:04:46;;;;;;;7.70;6.20;;;;;;;25.58;73.57;65696.06;5050877;28;20193;-52
2023/09/16 11:07:12;;;;;;;6.70;6.03;;;;;;;25.74;71.65;65713.25;5049244;28;20221;-53
2023/09/16 11:09:39;;;;;;;7.55;6.70;;;;;;;25.79;76.19;65719.38;5050771;28;20170;-52